Time;durP1;ratioP1;P1;durP2;ratioP2;P2;SDS_P1;SDS_P2;PMS_P1;PMS_P2;Temp;Humidity;BMP_temperature;BMP_pressure;BME280_temperature;BME280_humidity;BME280_pressure;Samples;Min_cycle;Max_cycle;Signal;HPM_P1;HPM_P2
2023/05/06 00:00:04;;;;;;;5.43;3.75;;;;;;;22.41;44.90;100363.00;5071348;28;20080;-66
2023/05/06 00:02:34;;;;;;;6.93;3.83;;;;;;;22.38;44.93;100360.59;5071067;28;20147;-66
2023/05/06 00:05:03;;;;;;;4.93;3.50;;;;;;;22.37;45.15;100358.88;5071095;28;20060;-65
2023/05/06 00:07:31;;;;;;;5.30;3.50;;;;;;;22.37;45.16;100358.03;5071302;28;20056;-65
2023/05/06 00:10:00;;;;;;;6.07;3.70;;;;;;;22.36;45.30;100356.34;5070989;28;20052;-65
2023/05/06 00:12:28;;;;;;;4.95;3.38;;;;;;;22.34;45.09;100355.66;5071022;28;20048;-65
2023/05/06 00:14:56;;;;;;;5.75;4.05;;;;;;;22.32;45.17;100361.25;5070985;28;20095;-65
2023/05/06 00:17:24;;;;;;;5.57;3.60;;;;;;;22.31;45.16;100353.28;5074264;28;20060;-65
2023/05/06 00:19:57;;;;;;;6.65;3.55;;;;;;;22.30;45.03;100362.47;5074524;28;20044;-65
2023/05/06 00:22:25;;;;;;;5.25;3.40;;;;;;;22.27;45.05;100359.03;5074729;28;20045;-64
2023/05/06 00:24:53;;;;;;;5.97;3.80;;;;;;;22.26;45.08;100357.34;5074398;28;20614;-65
2023/05/06 00:27:21;;;;;;;5.75;3.53;;;;;;;22.24;45.28;100367.53;5074565;28;20127;-64
2023/05/06 00:29:49;;;;;;;6.80;3.67;;;;;;;22.24;45.13;100369.38;5074308;28;20052;-65
2023/05/06 00:32:17;;;;;;;5.28;3.40;;;;;;;22.22;45.34;100361.41;5074538;28;20060;-65
2023/05/06 00:34:46;;;;;;;4.43;3.17;;;;;;;22.21;45.21;100364.28;5074492;28;20109;-65
2023/05/06 00:37:16;;;;;;;6.13;4.07;;;;;;;22.19;45.31;100360.88;5074311;28;20048;-66
2023/05/06 00:39:44;;;;;;;5.82;3.55;;;;;;;22.18;45.20;100365.44;5074287;28;20044;-65
2023/05/06 00:42:12;;;;;;;4.35;3.30;;;;;;;22.17;45.47;100374.63;5074039;28;20048;-66
2023/05/06 00:44:40;;;;;;;5.60;3.45;;;;;;;22.15;45.33;100371.22;5074502;28;20052;-66
2023/05/06 00:47:09;;;;;;;4.88;3.38;;;;;;;22.14;45.40;100366.81;5074326;28;20139;-65
2023/05/06 00:49:37;;;;;;;5.25;3.60;;;;;;;22.13;45.56;100370.53;5073984;28;20481;-65
2023/05/06 00:52:06;;;;;;;4.97;3.50;;;;;;;22.12;45.51;100370.72;5074046;28;20113;-64
2023/05/06 00:54:36;;;;;;;5.25;3.50;;;;;;;22.11;45.21;100369.88;5073958;28;20385;-66
2023/05/06 00:57:04;;;;;;;5.38;3.58;;;;;;;22.09;45.44;100371.88;5073778;28;20048;-66
2023/05/06 00:59:32;;;;;;;5.70;3.30;;;;;;;22.08;45.59;100363.88;5073766;28;20537;-66
2023/05/06 01:02:00;;;;;;;5.68;3.70;;;;;;;22.06;45.33;100366.75;5073954;28;20075;-65
2023/05/06 01:04:29;;;;;;;5.38;3.40;;;;;;;22.05;45.40;100366.91;5073808;28;20080;-65
2023/05/06 01:07:05;;;;;;;4.85;3.55;;;;;;;22.03;45.49;100361.63;5073768;28;20144;-66
2023/05/06 01:09:41;;;;;;;4.63;3.40;;;;;;;22.03;45.58;100364.34;5073398;28;20056;-66
2023/05/06 01:12:17;;;;;;;5.20;3.67;;;;;;;22.00;45.44;100362.81;5073833;28;20429;-66
2023/05/06 01:14:58;;;;;;;5.05;3.45;;;;;;;21.99;45.18;100362.97;5073464;28;20512;-66
2023/05/06 01:17:27;;;;;;;4.50;3.17;;;;;;;21.98;45.49;100359.41;5073554;28;20048;-66
2023/05/06 01:20:00;;;;;;;5.40;3.33;;;;;;;21.97;45.35;100356.84;5073347;28;20055;-66
2023/05/06 01:22:30;;;;;;;4.63;3.20;;;;;;;21.96;45.51;100366.88;5073431;28;20569;-66
2023/05/06 01:25:00;;;;;;;5.20;3.50;;;;;;;21.95;45.63;100358.88;5073512;28;20040;-66
2023/05/06 01:27:29;;;;;;;5.68;3.22;;;;;;;21.93;45.74;100350.06;5072928;28;20052;-66
2023/05/06 01:29:58;;;;;;;6.38;3.50;;;;;;;21.92;45.57;100349.22;5073240;28;20481;-66
2023/05/06 01:32:36;;;;;;;4.72;3.38;;;;;;;21.91;45.46;100349.38;5073070;28;20048;-66
2023/05/06 01:35:15;;;;;;;4.75;3.22;;;;;;;21.89;45.42;100343.22;5073400;28;20055;-66
2023/05/06 01:37:48;;;;;;;5.07;3.40;;;;;;;21.88;45.59;100338.81;5073581;28;20155;-66
2023/05/06 01:40:18;;;;;;;5.28;3.30;;;;;;;21.87;45.60;100345.25;5073100;28;20080;-66
2023/05/06 01:42:49;;;;;;;6.30;3.67;;;;;;;21.85;45.71;100340.00;5073086;28;20144;-66
2023/05/06 01:45:19;;;;;;;4.47;3.17;;;;;;;21.83;45.31;100336.59;5073016;28;20052;-66
2023/05/06 01:47:48;;;;;;;5.25;3.33;;;;;;;21.82;45.53;100339.50;5073121;28;20056;-66
2023/05/06 01:50:16;;;;;;;4.80;3.38;;;;;;;21.82;45.68;100334.06;5073103;28;20049;-66
2023/05/06 01:52:44;;;;;;;4.15;3.08;;;;;;;21.79;45.72;100332.50;5072898;28;20098;-66
2023/05/06 01:55:13;;;;;;;5.55;3.45;;;;;;;21.79;45.62;100345.22;5072974;28;20086;-66
2023/05/06 01:57:42;;;;;;;5.03;3.33;;;;;;;21.77;45.70;100339.09;5072559;28;20058;-66
2023/05/06 02:00:11;;;;;;;4.40;3.15;;;;;;;21.76;45.59;100340.13;5072995;28;20040;-66
2023/05/06 02:02:39;;;;;;;4.95;3.42;;;;;;;21.74;45.74;100336.72;5072707;28;20094;-66
2023/05/06 02:05:08;;;;;;;4.70;3.20;;;;;;;21.73;45.53;100335.03;5072789;28;20044;-66
2023/05/06 02:07:36;;;;;;;4.93;3.33;;;;;;;21.71;45.77;100338.75;5072416;28;20044;-65
2023/05/06 02:10:05;;;;;;;4.93;3.50;;;;;;;21.70;45.81;100345.19;5072416;28;20408;-65
2023/05/06 02:12:33;;;;;;;5.28;3.40;;;;;;;21.70;45.62;100347.03;5072624;28;20495;-65
2023/05/06 02:15:03;;;;;;;4.70;3.28;;;;;;;21.68;45.82;100343.66;5072541;28;20076;-66
2023/05/06 02:17:34;;;;;;;4.30;3.10;;;;;;;21.67;45.61;100344.66;5072444;28;20055;-66
2023/05/06 02:20:02;;;;;;;5.65;3.25;;;;;;;21.66;45.93;100343.81;5072340;28;20052;-66
2023/05/06 02:22:30;;;;;;;5.10;3.20;;;;;;;21.66;45.98;100337.53;5072127;28;20041;-66
2023/05/06 02:24:58;;;;;;;4.25;3.13;;;;;;;21.63;45.80;100333.28;5072098;28;20110;-66
2023/05/06 02:27:26;;;;;;;4.03;2.97;;;;;;;21.62;45.58;100334.31;5072357;28;20048;-65
2023/05/06 02:29:55;;;;;;;5.15;3.60;;;;;;;21.60;45.75;100344.44;5072189;28;20045;-65
2023/05/06 02:32:24;;;;;;;4.28;3.00;;;;;;;21.59;45.98;100348.16;5072119;28;20044;-67
2023/05/06 02:34:53;;;;;;;4.55;3.08;;;;;;;21.59;45.67;100350.88;5072099;28;20048;-67
2023/05/06 02:37:21;;;;;;;4.70;3.25;;;;;;;21.58;45.75;100351.06;5071861;28;20135;-67
2023/05/06 02:39:49;;;;;;;4.28;3.17;;;;;;;21.56;45.75;100345.78;5071850;28;20131;-67
2023/05/06 02:42:17;;;;;;;4.32;3.15;;;;;;;21.55;45.83;100352.22;5072111;28;20060;-66
2023/05/06 02:44:46;;;;;;;5.03;3.28;;;;;;;21.55;45.91;100349.53;5071937;28;20135;-66
2023/05/06 02:47:14;;;;;;;5.03;3.40;;;;;;;21.54;45.88;100349.69;5071975;28;20044;-67
2023/05/06 02:49:43;;;;;;;4.32;3.17;;;;;;;21.52;45.84;100347.13;5071851;28;20485;-66
2023/05/06 02:52:12;;;;;;;4.75;3.10;;;;;;;21.52;45.80;100352.56;5072047;28;20076;-66
2023/05/06 02:54:40;;;;;;;4.20;3.03;;;;;;;21.50;45.75;100349.13;5072035;28;20516;-66
2023/05/06 02:57:08;;;;;;;5.88;3.30;;;;;;;21.48;45.58;100356.59;5071939;28;20139;-66
2023/05/06 02:59:36;;;;;;;4.57;3.28;;;;;;;21.47;46.08;100363.03;5071662;28;20048;-67
2023/05/06 03:02:05;;;;;;;4.55;3.33;;;;;;;21.47;45.75;100362.19;5071801;28;20136;-66
2023/05/06 03:04:33;;;;;;;4.50;3.05;;;;;;;21.46;45.95;100363.19;5072173;28;20051;-66
2023/05/06 03:07:02;;;;;;;4.63;3.13;;;;;;;21.44;45.98;100366.06;5071888;28;20155;-66
2023/05/06 03:09:30;;;;;;;5.03;3.30;;;;;;;21.42;45.96;100357.22;5071595;28;20413;-66
2023/05/06 03:11:59;;;;;;;4.20;2.97;;;;;;;21.42;45.75;100354.50;5071775;28;20456;-66
2023/05/06 03:14:27;;;;;;;4.60;3.03;;;;;;;21.41;45.78;100355.53;5071808;28;20091;-67
2023/05/06 03:16:55;;;;;;;4.60;3.35;;;;;;;21.41;45.80;100360.94;5071493;28;20053;-67
2023/05/06 03:19:23;;;;;;;4.88;3.05;;;;;;;21.39;45.83;100352.13;5071639;28;20666;-66
2023/05/06 03:21:52;;;;;;;5.00;3.15;;;;;;;21.38;46.01;100348.56;5071764;28;20094;-67
2023/05/06 03:24:21;;;;;;;4.00;3.08;;;;;;;21.37;46.18;100346.00;5071932;28;20048;-66
2023/05/06 03:26:50;;;;;;;4.75;3.20;;;;;;;21.36;45.82;100352.44;5071594;28;20136;-66
2023/05/06 03:29:18;;;;;;;5.32;3.33;;;;;;;21.35;46.18;100348.03;5071782;28;20070;-66
2023/05/06 03:31:49;;;;;;;4.30;3.10;;;;;;;21.33;46.18;100342.78;5071530;28;20047;-66
2023/05/06 03:34:18;;;;;;;4.32;2.95;;;;;;;21.32;45.98;100335.63;5071546;28;20406;-66
2023/05/06 03:36:46;;;;;;;4.40;3.10;;;;;;;21.31;45.93;100327.66;5071331;28;20547;-66
2023/05/06 03:39:14;;;;;;;4.30;3.20;;;;;;;21.30;46.21;100329.50;5071482;28;20045;-66
2023/05/06 03:41:44;;;;;;;4.93;3.10;;;;;;;21.30;46.24;100336.81;5071360;28;20076;-68
2023/05/06 03:44:12;;;;;;;5.30;3.40;;;;;;;21.28;45.90;100338.81;5071244;28;20555;-66
2023/05/06 03:46:40;;;;;;;4.82;3.17;;;;;;;21.28;46.11;100333.41;5071569;28;20078;-66
2023/05/06 03:49:10;;;;;;;4.20;2.90;;;;;;;21.27;46.12;100339.84;5071431;28;20071;-66
2023/05/06 03:51:38;;;;;;;4.28;2.92;;;;;;;21.26;45.92;100346.25;5073393;28;20040;-66
2023/05/06 03:54:07;;;;;;;3.90;2.92;;;;;;;21.25;46.00;100345.41;5075209;28;20404;-66
2023/05/06 03:56:35;;;;;;;5.00;3.45;;;;;;;21.24;45.95;100342.84;5075053;28;20048;-65
2023/05/06 03:59:04;;;;;;;3.90;2.85;;;;;;;21.24;46.21;100348.28;5074859;28;20052;-66
2023/05/06 04:01:32;;;;;;;4.20;3.13;;;;;;;21.23;46.10;100357.38;5075251;28;20447;-66
2023/05/06 04:04:02;;;;;;;4.80;2.92;;;;;;;21.22;46.04;100351.13;5075038;28;20135;-66
2023/05/06 04:06:30;;;;;;;4.47;3.13;;;;;;;21.21;46.25;100359.41;5074895;28;20538;-66
2023/05/06 04:08:59;;;;;;;3.95;3.05;;;;;;;21.21;46.06;100354.00;5074745;28;20056;-66
2023/05/06 04:11:27;;;;;;;4.10;2.92;;;;;;;21.19;46.20;100359.59;5074768;28;20048;-66
2023/05/06 04:13:56;;;;;;;5.00;2.90;;;;;;;21.19;45.89;100366.88;5074892;28;20048;-66
2023/05/06 04:16:26;;;;;;;4.38;2.92;;;;;;;21.18;46.17;100373.31;5074896;28;20048;-66
2023/05/06 04:18:56;;;;;;;4.78;3.38;;;;;;;21.16;45.92;100368.03;5074617;28;20131;-66
2023/05/06 04:21:24;;;;;;;4.72;3.10;;;;;;;21.15;46.12;100367.19;5074591;28;20562;-66
2023/05/06 04:23:53;;;;;;;3.85;2.80;;;;;;;21.14;46.24;100360.06;5074409;28;20135;-66
2023/05/06 04:26:21;;;;;;;4.70;2.95;;;;;;;21.13;46.25;100352.06;5074722;28;20048;-66
2023/05/06 04:28:50;;;;;;;4.63;3.00;;;;;;;21.12;45.98;100363.91;5074552;28;20040;-66
2023/05/06 04:31:18;;;;;;;6.70;3.00;;;;;;;21.12;46.47;100367.47;5074482;28;20045;-66
2023/05/06 04:33:48;;;;;;;4.82;3.20;;;;;;;21.11;46.36;100367.66;5074460;28;20054;-67
2023/05/06 04:36:17;;;;;;;4.30;2.92;;;;;;;21.11;46.17;100364.94;5074415;28;20080;-67
2023/05/06 04:38:46;;;;;;;5.30;3.03;;;;;;;21.09;46.15;100370.53;5074273;28;20420;-67
2023/05/06 04:41:14;;;;;;;4.32;2.90;;;;;;;21.09;46.31;100372.38;5074278;28;20048;-67
2023/05/06 04:43:42;;;;;;;4.90;2.95;;;;;;;21.08;46.29;100371.53;5074463;28;20049;-67
2023/05/06 04:46:10;;;;;;;4.35;2.90;;;;;;;21.07;46.30;100380.69;5074278;28;20045;-66
2023/05/06 04:48:39;;;;;;;4.20;2.78;;;;;;;21.06;46.36;100373.56;5074198;28;20044;-66
2023/05/06 04:51:08;;;;;;;4.20;3.00;;;;;;;21.06;46.02;100378.97;5073960;28;20076;-66
2023/05/06 04:53:37;;;;;;;5.03;3.15;;;;;;;21.06;46.15;100378.97;5074238;28;20044;-66
2023/05/06 04:56:05;;;;;;;3.65;2.83;;;;;;;21.05;46.22;100388.13;5074116;28;20045;-66
2023/05/06 04:58:33;;;;;;;3.80;2.80;;;;;;;21.04;46.58;100391.00;5073978;28;20056;-66
2023/05/06 05:01:04;;;;;;;4.65;3.13;;;;;;;21.04;46.46;100386.44;5073850;28;20044;-65
2023/05/06 05:03:33;;;;;;;4.60;3.10;;;;;;;21.03;46.41;100400.97;5073471;28;20059;-65
2023/05/06 05:06:01;;;;;;;3.90;2.88;;;;;;;21.03;46.16;100392.84;5073850;28;20052;-65
2023/05/06 05:08:31;;;;;;;4.20;3.00;;;;;;;21.03;46.22;100400.13;5073631;28;20559;-65
2023/05/06 05:10:59;;;;;;;4.60;2.97;;;;;;;21.03;46.58;100394.69;5073836;28;20094;-65
2023/05/06 05:13:27;;;;;;;4.03;3.00;;;;;;;21.02;46.31;100396.56;5073844;28;20404;-65
2023/05/06 05:15:55;;;;;;;4.35;2.90;;;;;;;21.02;46.27;100401.97;5073579;28;20076;-65
2023/05/06 05:18:24;;;;;;;4.18;2.90;;;;;;;21.01;46.32;100403.00;5073497;28;20106;-65
2023/05/06 05:20:52;;;;;;;4.93;3.25;;;;;;;21.01;46.53;100396.72;5073618;28;20135;-65
2023/05/06 05:23:20;;;;;;;4.40;3.05;;;;;;;21.01;46.66;100403.00;5073419;28;20500;-65
2023/05/06 05:25:50;;;;;;;5.05;3.00;;;;;;;21.00;46.58;100398.56;5073557;28;20052;-65
2023/05/06 05:28:18;;;;;;;3.67;2.67;;;;;;;21.00;46.36;100395.88;5073574;28;20064;-65
2023/05/06 05:30:46;;;;;;;4.05;2.80;;;;;;;21.00;46.40;100395.88;5073264;28;20493;-66
2023/05/06 05:33:14;;;;;;;4.10;2.75;;;;;;;21.00;46.67;100390.44;5073550;28;20058;-66
2023/05/06 05:35:43;;;;;;;3.58;2.75;;;;;;;21.00;46.70;100395.00;5073453;28;20045;-66
2023/05/06 05:38:11;;;;;;;4.10;2.78;;;;;;;20.99;46.69;100388.75;5073190;28;20068;-66
2023/05/06 05:40:40;;;;;;;4.63;3.08;;;;;;;20.98;46.66;100389.75;5073329;28;20049;-66
2023/05/06 05:43:09;;;;;;;5.22;3.08;;;;;;;20.99;46.59;100388.75;5072987;28;20041;-65
2023/05/06 05:45:38;;;;;;;4.75;3.35;;;;;;;21.00;46.33;100387.72;5072995;28;20076;-65
2023/05/06 05:48:06;;;;;;;4.25;2.97;;;;;;;20.99;46.64;100394.16;5072345;28;20507;-65
2023/05/06 05:50:35;;;;;;;4.10;2.80;;;;;;;21.00;46.76;100395.88;5073052;28;20091;-65
2023/05/06 05:53:04;;;;;;;5.50;2.95;;;;;;;20.99;46.42;100399.59;5073190;28;20052;-65
2023/05/06 05:55:35;;;;;;;5.07;3.38;;;;;;;21.00;46.57;100398.56;5072910;28;20136;-65
2023/05/06 05:58:03;;;;;;;4.95;3.10;;;;;;;21.00;46.46;100395.88;5072641;28;20156;-66
2023/05/06 06:00:33;;;;;;;5.38;3.17;;;;;;;21.01;46.61;100388.59;5072888;28;20044;-65
2023/05/06 06:03:01;;;;;;;4.32;2.78;;;;;;;21.01;46.75;100396.72;5072738;28;20045;-65
2023/05/06 06:05:32;;;;;;;4.40;3.13;;;;;;;21.02;46.57;100395.69;5072790;28;20051;-66
2023/05/06 06:08:04;;;;;;;4.90;2.80;;;;;;;21.02;46.69;100390.28;5072507;28;20064;-65
2023/05/06 06:10:32;;;;;;;5.25;3.22;;;;;;;21.01;46.50;100386.72;5072607;28;20102;-65
2023/05/06 06:13:01;;;;;;;5.15;2.88;;;;;;;21.01;46.56;100392.16;5072048;28;20083;-67
2023/05/06 06:15:30;;;;;;;4.75;3.22;;;;;;;21.02;46.55;100388.41;5074011;28;20044;-66
2023/05/06 06:18:00;;;;;;;4.47;3.10;;;;;;;21.02;46.40;100388.41;5072463;28;20064;-68
2023/05/06 06:20:29;;;;;;;4.53;3.13;;;;;;;21.02;46.53;100388.41;5072393;28;20051;-67
2023/05/06 06:22:57;;;;;;;5.00;3.05;;;;;;;21.02;46.55;100393.84;5072281;28;20051;-67
2023/05/06 06:25:25;;;;;;;5.20;3.10;;;;;;;21.03;46.66;100391.97;5072019;28;20072;-67
2023/05/06 06:27:55;;;;;;;4.57;3.08;;;;;;;21.03;46.50;100384.69;5072502;28;20040;-67
2023/05/06 06:30:23;;;;;;;4.32;2.90;;;;;;;21.04;46.70;100391.00;5072486;28;20044;-67
2023/05/06 06:32:53;;;;;;;4.78;3.20;;;;;;;21.03;46.53;100384.69;5072189;28;20044;-68
2023/05/06 06:35:23;;;;;;;4.40;3.03;;;;;;;21.04;46.60;100381.00;5066606;28;20049;-67
2023/05/06 06:37:51;;;;;;;4.85;3.00;;;;;;;21.04;46.97;100391.00;5072030;28;20052;-67
2023/05/06 06:40:20;;;;;;;4.90;2.97;;;;;;;21.04;46.52;100386.44;5072406;28;20056;-68
2023/05/06 06:42:50;;;;;;;4.82;3.15;;;;;;;21.04;47.09;100386.44;5069680;28;20057;-68
2023/05/06 06:45:18;;;;;;;4.20;2.80;;;;;;;21.05;46.74;100377.28;5071491;28;20036;-68
2023/05/06 06:47:46;;;;;;;5.07;3.35;;;;;;;21.05;46.72;100382.72;5071955;28;20501;-68
2023/05/06 06:50:15;;;;;;;5.15;3.10;;;;;;;21.06;46.99;100378.97;5071832;28;20447;-67
2023/05/06 06:52:44;;;;;;;4.00;3.10;;;;;;;21.07;47.00;100375.25;5072205;28;20094;-67
2023/05/06 06:55:13;;;;;;;4.60;3.35;;;;;;;21.08;46.85;100370.69;5071993;28;20082;-68
2023/05/06 06:57:41;;;;;;;4.45;2.97;;;;;;;21.07;46.66;100368.97;5071911;28;20401;-67
2023/05/06 07:00:10;;;;;;;3.88;2.75;;;;;;;21.08;47.11;100371.53;5071338;28;20052;-67
2023/05/06 07:02:38;;;;;;;4.82;3.15;;;;;;;21.08;46.93;100366.09;5071212;28;20044;-70
2023/05/06 07:05:07;;;;;;;3.67;2.78;;;;;;;21.09;47.18;100362.38;5071636;28;20045;-63
2023/05/06 07:07:35;;;;;;;5.45;3.03;;;;;;;21.11;46.81;100363.06;5071372;28;20049;-67
2023/05/06 07:10:06;;;;;;;5.40;3.20;;;;;;;21.13;48.09;100374.66;5073537;28;20044;-67
2023/05/06 07:12:34;;;;;;;6.88;3.60;;;;;;;21.17;48.88;100363.47;5071565;28;20041;-67
2023/05/06 07:15:05;;;;;;;8.45;3.65;;;;;;;21.20;49.06;100374.00;5071773;28;20053;-66
2023/05/06 07:17:33;;;;;;;9.43;3.92;;;;;;;21.21;49.32;100372.97;5071552;28;20118;-67
2023/05/06 07:20:02;;;;;;;9.02;3.90;;;;;;;21.24;49.46;100387.09;5071456;28;20045;-67
2023/05/06 07:22:30;;;;;;;8.73;3.83;;;;;;;21.26;49.52;100378.78;5071400;28;20135;-67
2023/05/06 07:24:58;;;;;;;9.48;4.15;;;;;;;21.27;49.81;100375.94;5072387;28;20068;-67
2023/05/06 07:27:29;;;;;;;8.02;3.38;;;;;;;21.29;49.96;100373.06;5075754;28;20053;-65
2023/05/06 07:30:01;;;;;;;10.30;3.90;;;;;;;21.31;50.14;100368.34;5075692;28;20044;-66
2023/05/06 07:32:30;;;;;;;7.70;3.63;;;;;;;21.33;49.88;100369.06;5075886;28;20091;-66
2023/05/06 07:34:58;;;;;;;11.00;3.97;;;;;;;21.35;50.25;100372.47;5075635;28;20048;-67
2023/05/06 07:37:27;;;;;;;11.10;4.10;;;;;;;21.37;50.39;100371.28;5075549;28;20135;-67
2023/05/06 07:39:56;;;;;;;9.55;4.10;;;;;;;21.39;50.63;100368.41;5075534;28;20048;-67
2023/05/06 07:42:25;;;;;;;9.25;3.78;;;;;;;21.41;50.52;100374.50;5075284;28;20410;-67
2023/05/06 07:44:55;;;;;;;11.30;3.78;;;;;;;21.42;51.04;100368.06;5075287;28;20524;-67
2023/05/06 07:47:28;;;;;;;8.52;3.85;;;;;;;21.46;50.97;100374.91;5075277;28;20123;-67
2023/05/06 07:49:56;;;;;;;12.93;3.92;;;;;;;21.50;51.14;100370.00;5075165;28;20045;-68
2023/05/06 07:52:24;;;;;;;11.60;4.47;;;;;;;21.52;50.78;100367.97;5075026;28;20051;-67
2023/05/06 07:54:53;;;;;;;10.38;4.13;;;;;;;21.52;50.43;100362.53;5075104;28;20051;-67
2023/05/06 07:57:21;;;;;;;9.57;4.40;;;;;;;21.52;49.88;100367.97;5075071;28;20481;-67
2023/05/06 07:59:51;;;;;;;8.32;4.18;;;;;;;21.52;49.59;100362.53;5075367;28;20430;-68
2023/05/06 08:02:20;;;;;;;7.07;3.85;;;;;;;21.52;49.69;100367.97;5075153;28;20045;-67
2023/05/06 08:04:49;;;;;;;8.65;4.13;;;;;;;21.51;49.51;100369.81;5074960;28;20508;-67
2023/05/06 08:07:19;;;;;;;8.75;4.15;;;;;;;21.52;49.48;100368.84;5075020;28;20094;-67
2023/05/06 08:09:47;;;;;;;7.75;4.40;;;;;;;21.52;49.42;100374.28;5074042;28;20056;-67
2023/05/06 08:12:16;;;;;;;8.20;4.25;;;;;;;21.53;49.75;100375.13;5072774;28;20447;-67
2023/05/06 08:14:45;;;;;;;7.88;4.15;;;;;;;21.53;49.38;100375.97;5071337;28;20047;-66
2023/05/06 08:17:13;;;;;;;8.73;4.55;;;;;;;21.54;49.24;100377.69;5073340;28;20446;-67
2023/05/06 08:19:43;;;;;;;9.50;4.28;;;;;;;21.55;48.98;100373.09;5073504;28;20094;-66
2023/05/06 08:22:13;;;;;;;8.50;4.00;;;;;;;21.55;49.10;100376.66;5073506;28;20076;-66
2023/05/06 08:24:41;;;;;;;7.82;4.13;;;;;;;21.56;49.45;100377.50;5073704;28;20049;-66
2023/05/06 08:27:09;;;;;;;7.65;3.88;;;;;;;21.57;48.84;100371.91;5073506;28;20036;-66
2023/05/06 08:29:38;;;;;;;7.05;3.95;;;;;;;21.57;49.33;100371.06;5073880;28;20048;-66
2023/05/06 08:32:06;;;;;;;9.35;3.92;;;;;;;21.58;49.24;100373.63;5073988;28;20079;-64
2023/05/06 08:34:34;;;;;;;6.60;4.05;;;;;;;21.58;49.25;100370.91;5073715;28;20088;-63
2023/05/06 08:37:05;;;;;;;8.00;3.70;;;;;;;21.59;49.38;100371.75;5072631;28;20543;-68
2023/05/06 08:39:33;;;;;;;7.78;3.97;;;;;;;21.59;49.42;100369.88;5073905;28;20040;-66
2023/05/06 08:42:03;;;;;;;7.40;3.70;;;;;;;21.61;49.17;100370.56;5074078;28;20055;-62
2023/05/06 08:44:33;;;;;;;7.90;4.00;;;;;;;21.62;49.44;100371.44;5073718;28;20048;-62
2023/05/06 08:47:01;;;;;;;7.22;4.05;;;;;;;21.62;49.13;100366.88;5073684;28;20044;-62
2023/05/06 08:49:30;;;;;;;6.72;3.80;;;;;;;21.64;49.41;100366.72;5073407;28;20098;-61
2023/05/06 08:51:58;;;;;;;7.05;4.60;;;;;;;21.64;49.11;100364.84;5073738;28;20059;-63
2023/05/06 08:54:28;;;;;;;6.20;4.07;;;;;;;21.65;49.12;100361.13;5073565;28;20044;-65
2023/05/06 08:57:02;;;;;;;7.63;3.92;;;;;;;21.66;49.12;100354.66;5073124;28;20050;-68
2023/05/06 08:59:31;;;;;;;7.82;4.22;;;;;;;21.68;49.24;100358.06;5073282;28;20131;-66
2023/05/06 09:02:00;;;;;;;6.20;3.63;;;;;;;21.69;49.08;100354.34;5072554;28;20139;-64
2023/05/06 09:04:28;;;;;;;6.85;3.90;;;;;;;21.70;49.45;100353.31;5072830;28;20098;-63
2023/05/06 09:06:58;;;;;;;6.53;4.00;;;;;;;21.73;49.22;100356.75;5073513;28;20405;-63
2023/05/06 09:09:28;;;;;;;10.27;4.70;;;;;;;21.73;49.27;100354.88;5073582;28;20394;-63
2023/05/06 09:11:57;;;;;;;8.80;4.63;;;;;;;21.74;48.99;100355.72;5072893;28;20049;-65
2023/05/06 09:14:26;;;;;;;7.53;4.40;;;;;;;21.76;49.09;100348.28;5072021;28;20040;-62
2023/05/06 09:16:54;;;;;;;7.47;4.38;;;;;;;21.78;49.38;100346.25;5073229;28;20139;-64
2023/05/06 09:19:26;;;;;;;8.10;4.30;;;;;;;21.79;49.05;100342.50;5073293;28;20083;-64
2023/05/06 09:21:55;;;;;;;9.85;4.43;;;;;;;21.80;49.30;100338.78;5072682;28;20182;-64
2023/05/06 09:24:24;;;;;;;7.45;4.45;;;;;;;21.82;49.19;100342.22;5073080;28;20041;-64
2023/05/06 09:26:54;;;;;;;8.57;4.53;;;;;;;21.84;49.35;100342.88;5072799;28;20409;-65
2023/05/06 09:29:22;;;;;;;7.45;5.03;;;;;;;21.86;49.25;100338.13;5073071;28;20048;-65
2023/05/06 09:31:53;;;;;;;7.35;4.93;;;;;;;21.87;48.88;100334.41;5072945;28;20048;-65
2023/05/06 09:34:23;;;;;;;8.75;5.00;;;;;;;21.88;48.83;100331.53;5072835;28;20063;-64
2023/05/06 09:36:55;;;;;;;12.65;5.10;;;;;;;21.90;49.09;100328.63;5072621;28;20048;-65
2023/05/06 09:39:25;;;;;;;7.33;4.93;;;;;;;21.92;48.91;100326.63;5072904;28;20044;-64
2023/05/06 09:41:55;;;;;;;9.35;4.53;;;;;;;21.93;49.17;100322.91;5072191;28;20972;-64
2023/05/06 09:44:24;;;;;;;6.72;4.25;;;;;;;21.94;49.26;100324.59;5072753;28;20052;-64
2023/05/06 09:46:53;;;;;;;5.75;4.30;;;;;;;21.95;48.96;100316.28;5072650;28;20135;-65
2023/05/06 09:49:22;;;;;;;9.20;4.40;;;;;;;21.99;49.01;100319.50;5070988;28;20795;-68
2023/05/06 09:51:50;;;;;;;6.22;4.22;;;;;;;21.99;49.03;100317.66;5072994;28;20082;-65
2023/05/06 09:54:19;;;;;;;5.95;3.97;;;;;;;22.01;48.92;100320.22;5072732;28;20139;-63
2023/05/06 09:56:48;;;;;;;6.43;4.10;;;;;;;22.03;48.50;100315.47;5073050;28;20044;-64
2023/05/06 09:59:20;;;;;;;6.35;4.00;;;;;;;22.05;48.45;100309.88;5073053;28;20076;-64
2023/05/06 10:01:49;;;;;;;8.40;4.47;;;;;;;22.05;48.68;100308.00;5072676;28;20533;-67
2023/05/06 10:04:18;;;;;;;5.88;4.00;;;;;;;22.08;48.88;100302.25;5072584;28;20512;-67
2023/05/06 10:06:48;;;;;;;7.22;3.78;;;;;;;22.12;49.36;100295.50;5071935;28;20509;-66
2023/05/06 10:09:18;;;;;;;5.95;3.30;;;;;;;22.16;49.20;100296.00;5069379;28;20162;-67
2023/05/06 10:11:48;;;;;;;5.57;3.40;;;;;;;22.18;48.96;100299.41;5071777;28;20495;-66
2023/05/06 10:14:18;;;;;;;5.90;3.40;;;;;;;22.20;49.03;100292.81;5072221;28;20424;-67
2023/05/06 10:16:48;;;;;;;6.63;3.60;;;;;;;22.22;49.18;100285.34;5071702;28;20044;-66
2023/05/06 10:19:22;;;;;;;6.20;3.35;;;;;;;22.25;49.33;100285.00;5069580;28;20127;-65
2023/05/06 10:21:55;;;;;;;4.40;3.08;;;;;;;22.28;49.09;100287.38;5072475;28;20090;-67
2023/05/06 10:24:27;;;;;;;6.28;3.60;;;;;;;22.32;49.36;100284.34;5072399;28;20473;-67
2023/05/06 10:26:56;;;;;;;5.97;4.10;;;;;;;22.34;49.60;100276.88;5072613;28;20052;-66
2023/05/06 10:29:26;;;;;;;6.78;3.80;;;;;;;22.36;49.63;100280.25;5072498;28;20273;-66
2023/05/06 10:31:57;;;;;;;5.70;3.90;;;;;;;22.40;49.71;100273.47;5071748;28;20045;-65
2023/05/06 10:34:28;;;;;;;6.07;3.90;;;;;;;22.41;49.93;100267.88;5071072;28;20044;-65
2023/05/06 10:36:59;;;;;;;6.53;3.60;;;;;;;22.46;50.01;100270.06;5068443;28;20037;-65
2023/05/06 10:39:27;;;;;;;8.95;3.60;;;;;;;22.48;49.71;100270.75;5069661;28;20481;-65
2023/05/06 10:41:56;;;;;;;4.30;3.30;;;;;;;22.50;49.62;100266.03;5067067;28;20057;-65
2023/05/06 10:45:00;;;;;;;5.22;3.55;;;;;;;22.52;49.71;100259.38;5070606;28;20047;-65
2023/05/06 10:47:28;;;;;;;6.20;3.67;;;;;;;22.55;49.36;100252.75;5060028;28;20040;-65
2023/05/06 10:50:21;;;;;;;5.10;3.42;;;;;;;22.59;49.48;100256.00;5068411;28;20040;-66
2023/05/06 10:52:51;;;;;;;6.32;3.20;;;;;;;22.62;49.54;100250.22;5058415;28;20068;-66
2023/05/06 10:55:28;;;;;;;5.88;3.45;;;;;;;22.63;49.68;100239.16;5071581;28;20041;-66
2023/05/06 10:57:57;;;;;;;5.40;3.50;;;;;;;22.66;49.32;100246.13;5069079;28;20051;-65
2023/05/06 11:00:30;;;;;;;4.25;2.90;;;;;;;22.69;49.21;100243.94;5070930;28;20053;-66
2023/05/06 11:03:02;;;;;;;6.32;3.60;;;;;;;22.72;49.28;100237.31;5069334;28;20036;-65
2023/05/06 11:05:30;;;;;;;5.88;3.75;;;;;;;22.74;49.33;100236.09;5071132;28;20048;-65
2023/05/06 11:08:11;;;;;;;4.32;3.10;;;;;;;22.77;49.31;100227.59;5071287;28;20048;-65
2023/05/06 11:10:40;;;;;;;6.18;3.50;;;;;;;22.80;49.25;100223.69;5069255;28;20090;-66
2023/05/06 11:13:25;;;;;;;5.78;3.33;;;;;;;22.84;49.19;100231.38;5071668;28;20049;-66
2023/05/06 11:15:56;;;;;;;5.72;3.25;;;;;;;22.84;49.10;100220.47;5071299;28;20132;-65
2023/05/06 11:18:43;;;;;;;5.30;3.45;;;;;;;22.88;49.28;100236.47;5071501;28;20070;-65
2023/05/06 11:21:39;;;;;;;6.22;3.50;;;;;;;22.91;49.19;100230.69;5070570;28;20048;-65
2023/05/06 11:24:09;;;;;;;5.57;3.63;;;;;;;22.93;49.09;100234.91;5070393;28;20135;-66
2023/05/06 11:26:39;;;;;;;5.03;3.17;;;;;;;22.95;48.98;100230.16;5068893;28;20135;-66
2023/05/06 11:29:08;;;;;;;5.95;3.60;;;;;;;22.98;48.78;100224.38;5070943;28;20047;-64
2023/05/06 11:31:42;;;;;;;4.85;3.25;;;;;;;23.01;49.12;100225.91;5068836;28;20072;-67
2023/05/06 11:34:14;;;;;;;4.40;3.03;;;;;;;23.02;49.17;100231.16;5071481;28;20489;-66